createdAt,value
2023-03-05T00:00:08.457Z,16.43
2023-03-05T00:02:41.817Z,17.43
2023-03-05T00:05:11.654Z,16.77
2023-03-05T00:07:39.955Z,18.70
2023-03-05T00:10:09.768Z,18.23
2023-03-05T00:12:39.463Z,18.87
2023-03-05T00:15:10.090Z,19.27
2023-03-05T00:17:38.360Z,17.83
2023-03-05T00:20:08.108Z,17.47
2023-03-05T00:22:36.601Z,18.70
2023-03-05T00:25:06.421Z,19.20
2023-03-05T00:27:34.605Z,19.30
2023-03-05T00:30:05.642Z,18.37
2023-03-05T00:32:33.906Z,18.70
2023-03-05T00:35:02.110Z,17.43
2023-03-05T00:37:30.275Z,18.83
2023-03-05T00:39:59.167Z,19.30
2023-03-05T00:42:27.404Z,18.70
2023-03-05T00:44:55.744Z,19.60
2023-03-05T00:47:25.283Z,18.07
2023-03-05T00:49:54.327Z,18.47
2023-03-05T00:52:22.542Z,18.87
2023-03-05T00:54:50.779Z,19.50
2023-03-05T00:57:18.982Z,18.50
2023-03-05T00:59:47.380Z,19.50
2023-03-05T01:02:15.972Z,20.07
2023-03-05T01:04:47.249Z,19.83
2023-03-05T01:07:15.560Z,18.50
2023-03-05T01:09:43.787Z,17.77
2023-03-05T01:12:12.037Z,20.23
2023-03-05T01:14:40.367Z,20.30
2023-03-05T01:17:09.633Z,17.93
2023-03-05T01:19:39.443Z,20.83
2023-03-05T01:22:09.022Z,21.17
2023-03-05T01:24:37.204Z,18.20
2023-03-05T01:27:05.802Z,20.60
2023-03-05T01:29:34.038Z,20.47
2023-03-05T01:32:02.748Z,20.07
2023-03-05T01:34:30.961Z,21.33
2023-03-05T01:36:59.216Z,20.83
2023-03-05T01:39:28.838Z,19.63
2023-03-05T01:41:57.148Z,19.50
2023-03-05T01:44:28.652Z,18.33
2023-03-05T01:46:57.400Z,19.53
2023-03-05T01:49:28.762Z,20.30
2023-03-05T01:52:05.887Z,19.27
2023-03-05T01:54:41.423Z,20.20
2023-03-05T01:57:16.643Z,20.47
2023-03-05T01:59:50.854Z,19.03
2023-03-05T02:02:21.969Z,19.00
2023-03-05T02:04:56.534Z,20.60
2023-03-05T02:07:25.994Z,19.43
2023-03-05T02:09:55.587Z,20.63
2023-03-05T02:12:24.775Z,20.00
2023-03-05T02:14:59.289Z,18.53
2023-03-05T02:17:29.589Z,18.70
2023-03-05T02:20:06.795Z,18.93
2023-03-05T02:22:36.385Z,18.13
2023-03-05T02:25:16.458Z,18.77
2023-03-05T02:27:54.715Z,19.13
2023-03-05T02:30:25.416Z,19.07
2023-03-05T02:32:53.794Z,20.10
2023-03-05T02:35:23.223Z,19.40
2023-03-05T02:37:52.793Z,18.47
2023-03-05T02:40:21.388Z,18.30
2023-03-05T02:42:49.653Z,19.23
2023-03-05T02:45:18.165Z,21.73
2023-03-05T02:47:46.672Z,20.03
2023-03-05T02:50:15.173Z,19.33
2023-03-05T02:52:43.468Z,18.27
2023-03-05T02:55:17.481Z,17.43
2023-03-05T02:57:46.133Z,19.67
2023-03-05T03:00:15.803Z,18.20
2023-03-05T03:02:44.094Z,18.83
2023-03-05T03:05:12.335Z,17.63
2023-03-05T03:07:40.617Z,16.60
2023-03-05T03:10:10.688Z,17.70
2023-03-05T03:12:41.408Z,17.77
2023-03-05T03:15:13.526Z,17.23
2023-03-05T03:17:41.892Z,17.03
2023-03-05T03:20:15.175Z,17.43
2023-03-05T03:22:45.674Z,16.67
2023-03-05T03:25:18.020Z,16.50
2023-03-05T03:27:47.747Z,16.50
2023-03-05T03:30:17.211Z,16.17
2023-03-05T03:32:45.757Z,16.57
2023-03-05T03:35:14.855Z,16.17
2023-03-05T03:37:43.088Z,17.80
2023-03-05T03:40:13.770Z,16.23
2023-03-05T03:42:42.032Z,16.30
2023-03-05T03:45:13.545Z,15.57
2023-03-05T03:47:41.812Z,16.33
2023-03-05T03:50:11.886Z,17.00
2023-03-05T03:52:40.114Z,16.30
2023-03-05T03:55:09.670Z,15.83
2023-03-05T03:57:38.224Z,16.90
2023-03-05T04:00:08.680Z,15.50
2023-03-05T04:02:41.879Z,16.13
2023-03-05T04:05:10.862Z,15.37
2023-03-05T04:07:39.024Z,16.60
2023-03-05T04:10:08.832Z,15.37
2023-03-05T04:12:37.031Z,15.63
2023-03-05T04:15:07.956Z,16.57
2023-03-05T04:17:36.250Z,13.87
2023-03-05T04:20:09.678Z,16.37
2023-03-05T04:22:38.950Z,15.33
2023-03-05T04:25:10.261Z,15.10
2023-03-05T04:27:40.285Z,15.07
2023-03-05T04:30:12.597Z,16.80
2023-03-05T04:32:43.845Z,17.17
2023-03-05T04:35:13.455Z,17.53
2023-03-05T04:37:41.887Z,16.13
2023-03-05T04:40:12.246Z,16.10
2023-03-05T04:42:40.516Z,15.67
2023-03-05T04:45:10.704Z,17.00
2023-03-05T04:47:39.492Z,16.57
2023-03-05T04:50:14.003Z,15.60
2023-03-05T04:52:45.083Z,17.63
2023-03-05T04:55:15.916Z,17.57
2023-03-05T04:57:44.599Z,17.40
2023-03-05T05:00:16.793Z,18.33
2023-03-05T05:02:47.774Z,17.63
2023-03-05T05:05:20.590Z,16.53
2023-03-05T05:07:48.751Z,18.43
2023-03-05T05:10:18.312Z,18.70
2023-03-05T05:12:46.606Z,17.60
2023-03-05T05:15:15.286Z,22.47
2023-03-05T05:17:43.572Z,19.17
2023-03-05T05:20:15.248Z,19.23
2023-03-05T05:22:45.403Z,19.93
2023-03-05T05:25:13.713Z,18.27
2023-03-05T05:27:42.277Z,19.60
2023-03-05T05:30:12.437Z,21.43
2023-03-05T05:32:40.882Z,19.37
2023-03-05T05:35:11.108Z,17.77
2023-03-05T05:37:39.397Z,20.90
2023-03-05T05:40:11.384Z,19.43
2023-03-05T05:42:39.625Z,19.40
2023-03-05T05:45:09.991Z,19.43
2023-03-05T05:47:38.286Z,20.53
2023-03-05T05:50:08.739Z,19.33
2023-03-05T05:52:36.956Z,19.93
2023-03-05T05:55:06.787Z,19.77
2023-03-05T05:57:36.975Z,19.77
2023-03-05T06:00:11.214Z,19.57
2023-03-05T06:02:44.198Z,18.23
2023-03-05T06:05:15.928Z,20.00
2023-03-05T06:07:44.251Z,19.20
2023-03-05T06:10:13.319Z,18.90
2023-03-05T06:12:42.872Z,18.23
2023-03-05T06:15:11.739Z,20.60
2023-03-05T06:17:40.075Z,19.60
2023-03-05T06:20:10.383Z,19.00
2023-03-05T06:22:39.430Z,17.80
2023-03-05T06:25:10.133Z,19.00
2023-03-05T06:27:39.238Z,18.30
2023-03-05T06:30:12.365Z,18.17
2023-03-05T06:32:40.768Z,19.73
2023-03-05T06:35:10.083Z,18.43
2023-03-05T06:37:38.263Z,19.23
2023-03-05T06:40:08.197Z,23.33
2023-03-05T06:42:37.093Z,23.70
2023-03-05T06:45:06.700Z,24.17
2023-03-05T06:47:36.272Z,20.57
2023-03-05T06:54:36.714Z,20.67
2023-03-05T06:57:05.177Z,24.03
2023-03-05T06:59:34.585Z,20.93
2023-03-05T07:02:02.817Z,20.10
2023-03-05T07:04:32.460Z,20.87
2023-03-05T07:07:01.017Z,20.47
2023-03-05T07:09:30.660Z,22.83
2023-03-05T07:11:58.931Z,24.27
2023-03-05T07:14:27.108Z,20.40
2023-03-05T07:16:55.302Z,20.37
2023-03-05T07:19:23.518Z,22.50
2023-03-05T07:21:53.074Z,19.20
2023-03-05T07:24:21.241Z,19.23
2023-03-05T07:26:49.429Z,20.93
2023-03-05T07:29:17.590Z,19.57
2023-03-05T07:31:45.853Z,19.23
2023-03-05T07:34:14.043Z,21.33
2023-03-05T07:36:43.023Z,19.67
2023-03-05T07:39:13.775Z,18.20
2023-03-05T07:41:42.056Z,17.43
2023-03-05T07:44:11.385Z,17.90
2023-03-05T07:46:40.174Z,17.93
2023-03-05T07:49:08.510Z,16.53
2023-03-05T07:51:37.123Z,18.43
2023-03-05T07:54:05.686Z,17.03
2023-03-05T07:56:37.059Z,17.90
2023-03-05T07:59:09.477Z,17.87
2023-03-05T08:01:39.666Z,17.87
2023-03-05T08:04:10.599Z,17.10
2023-03-05T08:06:41.802Z,15.57
2023-03-05T08:09:10.064Z,16.30
2023-03-05T08:11:40.845Z,16.03
2023-03-05T08:14:09.739Z,16.10
2023-03-05T08:16:39.564Z,16.63
2023-03-05T08:19:08.289Z,15.60
2023-03-05T08:21:37.896Z,16.27
2023-03-05T08:27:17.935Z,14.97
2023-03-05T08:29:46.142Z,15.03
2023-03-05T08:32:14.415Z,13.67
2023-03-05T08:34:42.617Z,13.80
2023-03-05T08:37:10.876Z,13.97
2023-03-05T08:39:39.101Z,13.47
2023-03-05T08:42:09.095Z,11.93
2023-03-05T08:44:38.688Z,10.83
2023-03-05T08:47:07.271Z,10.07
2023-03-05T08:49:35.471Z,8.87
2023-03-05T08:52:03.828Z,9.47
2023-03-05T08:54:35.254Z,8.37
2023-03-05T08:57:06.283Z,8.53
2023-03-05T08:59:34.497Z,8.13
2023-03-05T09:02:04.844Z,8.20
2023-03-05T09:04:33.171Z,7.20
2023-03-05T09:07:01.472Z,8.23
2023-03-05T09:09:32.482Z,7.80
2023-03-05T09:12:00.901Z,8.13
2023-03-05T09:14:29.928Z,6.27
2023-03-05T09:16:59.368Z,6.50
2023-03-05T09:19:29.311Z,6.03
2023-03-05T09:21:57.568Z,5.90
2023-03-05T09:24:26.067Z,5.93
2023-03-05T09:26:54.314Z,5.53
2023-03-05T09:29:22.516Z,5.40
2023-03-05T09:31:52.853Z,5.90
2023-03-05T09:34:21.430Z,5.93
2023-03-05T09:36:51.128Z,5.30
2023-03-05T09:39:19.777Z,11.10
2023-03-05T09:42:29.205Z,7.57
2023-03-05T09:45:18.181Z,5.90
2023-03-05T09:47:56.808Z,5.00
2023-03-05T09:50:37.201Z,5.77
2023-03-05T09:53:18.867Z,4.47
2023-03-05T09:55:51.626Z,4.50
2023-03-05T09:58:32.102Z,4.13
2023-03-05T10:01:06.109Z,5.60
2023-03-05T10:03:57.938Z,3.90
2023-03-05T10:06:31.209Z,4.37
2023-03-05T10:09:13.447Z,5.30
2023-03-05T10:11:51.862Z,4.33
2023-03-05T10:14:28.862Z,4.43
2023-03-05T10:17:55.157Z,4.47
2023-03-05T10:20:58.074Z,4.90
2023-03-05T10:23:57.225Z,4.53
2023-03-05T10:26:45.213Z,3.07
2023-03-05T10:29:43.920Z,3.53
2023-03-05T10:32:28.894Z,3.37
2023-03-05T10:36:05.158Z,3.03
2023-03-05T10:39:55.403Z,4.37
2023-03-05T10:42:43.515Z,3.73
2023-03-05T10:45:35.333Z,2.40
2023-03-05T10:48:12.475Z,4.60
2023-03-05T10:50:46.088Z,4.30
2023-03-05T10:53:24.711Z,4.87
2023-03-05T10:55:56.242Z,4.00
2023-03-05T10:58:26.489Z,3.40
2023-03-05T11:01:05.707Z,3.57
2023-03-05T11:03:55.769Z,5.10
2023-03-05T11:06:40.303Z,3.67
2023-03-05T11:09:21.297Z,3.63
2023-03-05T11:12:22.299Z,3.97
2023-03-05T11:15:22.655Z,4.27
2023-03-05T11:18:09.022Z,3.80
2023-03-05T11:20:39.887Z,4.40
2023-03-05T11:23:14.948Z,4.63
2023-03-05T11:26:02.361Z,3.60
2023-03-05T11:28:35.962Z,3.53
2023-03-05T11:31:21.627Z,4.73
2023-03-05T11:34:03.247Z,4.13
2023-03-05T11:36:35.786Z,2.70
2023-03-05T11:39:16.515Z,3.10
2023-03-05T11:41:49.907Z,3.20
2023-03-05T11:44:23.676Z,2.90
2023-03-05T11:46:59.676Z,2.87
2023-03-05T11:49:32.500Z,2.23
2023-03-05T11:52:10.754Z,2.20
2023-03-05T11:54:53.075Z,2.47
2023-03-05T11:57:25.864Z,2.20
2023-03-05T11:59:57.284Z,1.83
2023-03-05T12:02:29.041Z,1.63
2023-03-05T12:04:59.505Z,1.67
2023-03-05T12:07:36.568Z,1.53
2023-03-05T12:10:15.426Z,1.50
2023-03-05T12:12:56.157Z,1.63
2023-03-05T12:15:41.829Z,1.40
2023-03-05T12:18:38.645Z,2.20
2023-03-05T12:21:18.154Z,1.87
2023-03-05T12:23:55.443Z,2.00
2023-03-05T12:27:07.188Z,1.87
2023-03-05T12:29:43.613Z,2.00
2023-03-05T12:33:01.701Z,1.37
2023-03-05T12:35:37.320Z,1.70
2023-03-05T12:38:31.555Z,1.43
2023-03-05T12:41:39.524Z,1.83
2023-03-05T12:44:19.389Z,1.40
2023-03-05T12:47:23.433Z,1.50
2023-03-05T12:49:51.995Z,1.63
2023-03-05T12:52:32.667Z,1.33
2023-03-05T12:55:21.297Z,1.37
2023-03-05T12:57:58.022Z,1.40
2023-03-05T13:00:33.844Z,1.40
2023-03-05T13:03:09.524Z,1.40
2023-03-05T13:05:40.366Z,1.47
2023-03-05T13:08:23.843Z,1.70
2023-03-05T13:10:54.902Z,1.57
2023-03-05T13:13:26.432Z,1.77
2023-03-05T13:15:55.023Z,1.97
2023-03-05T13:18:27.502Z,1.70
2023-03-05T13:21:05.545Z,1.63
2023-03-05T13:23:36.652Z,1.30
2023-03-05T13:26:15.243Z,1.60
2023-03-05T13:28:45.013Z,1.20
2023-03-05T13:31:22.370Z,2.10
2023-03-05T13:33:58.319Z,2.00
2023-03-05T13:36:28.768Z,1.73
2023-03-05T13:38:59.778Z,1.50
2023-03-05T13:41:29.617Z,2.10
2023-03-05T13:44:01.264Z,1.70
2023-03-05T13:46:33.356Z,1.20
2023-03-05T13:49:22.598Z,1.80
2023-03-05T13:51:54.605Z,2.10
2023-03-05T13:54:27.444Z,2.17
2023-03-05T13:56:58.891Z,1.83
2023-03-05T13:59:30.839Z,1.57
2023-03-05T14:02:01.119Z,1.80
2023-03-05T14:04:31.750Z,2.17
2023-03-05T14:07:04.509Z,1.90
2023-03-05T14:09:48.534Z,2.10
2023-03-05T14:12:30.361Z,3.20
2023-03-05T14:14:59.827Z,2.60
2023-03-05T14:17:43.144Z,4.10
2023-03-05T14:20:24.873Z,3.30
2023-03-05T14:22:56.782Z,2.50
2023-03-05T14:25:38.503Z,3.30
2023-03-05T14:28:21.971Z,2.90
2023-03-05T14:30:54.483Z,2.53
2023-03-05T14:33:25.894Z,2.60
2023-03-05T14:35:55.619Z,7.33
2023-03-05T14:38:28.966Z,4.10
2023-03-05T14:40:58.748Z,3.33
2023-03-05T14:43:26.896Z,2.67
2023-03-05T14:45:55.590Z,2.60
2023-03-05T14:48:23.804Z,2.60
2023-03-05T14:50:56.804Z,2.80
2023-03-05T14:53:29.884Z,3.10
2023-03-05T14:55:59.490Z,2.80
2023-03-05T14:58:32.284Z,3.10
2023-03-05T15:01:01.021Z,3.23
2023-03-05T15:03:29.506Z,3.30
2023-03-05T15:06:00.223Z,3.90
2023-03-05T15:08:32.281Z,3.70
2023-03-05T15:11:03.466Z,2.77
2023-03-05T15:13:32.318Z,3.30
2023-03-05T15:16:00.667Z,3.60
2023-03-05T15:18:29.430Z,4.00
2023-03-05T15:20:58.377Z,3.50
2023-03-05T15:23:28.989Z,3.33
2023-03-05T15:25:57.209Z,3.30
2023-03-05T15:28:26.788Z,3.77
2023-03-05T15:30:56.200Z,3.33
2023-03-05T15:33:27.425Z,3.83
2023-03-05T15:35:56.024Z,4.10
2023-03-05T15:38:27.523Z,3.57
2023-03-05T15:40:55.844Z,4.40
2023-03-05T15:43:24.188Z,4.70
2023-03-05T15:45:53.933Z,4.10
2023-03-05T15:48:22.244Z,4.87
2023-03-05T15:51:09.025Z,4.00
2023-03-05T15:53:49.537Z,4.93
2023-03-05T15:56:43.479Z,5.10
2023-03-05T15:59:13.497Z,5.73
2023-03-05T16:01:51.282Z,6.50
2023-03-05T16:04:21.762Z,5.53
2023-03-05T16:06:51.818Z,5.83
2023-03-05T16:09:21.866Z,6.17
2023-03-05T16:11:51.569Z,7.23
2023-03-05T16:14:25.523Z,6.40
2023-03-05T16:16:57.729Z,6.97
2023-03-05T16:19:28.058Z,8.07
2023-03-05T16:21:56.493Z,6.33
2023-03-05T16:24:24.786Z,5.23
2023-03-05T16:26:53.465Z,6.37
2023-03-05T16:29:21.828Z,8.30
2023-03-05T16:31:50.416Z,6.33
2023-03-05T16:34:21.398Z,6.30
2023-03-05T16:36:53.470Z,6.00
2023-03-05T16:39:23.352Z,6.37
2023-03-05T16:41:52.552Z,6.60
2023-03-05T16:44:22.353Z,8.00
2023-03-05T16:46:53.836Z,11.47
2023-03-05T16:49:24.071Z,8.10
2023-03-05T16:51:52.578Z,6.17
2023-03-05T16:54:21.960Z,8.77
2023-03-05T16:56:50.321Z,8.30
2023-03-05T16:59:18.543Z,8.40
2023-03-05T17:01:46.952Z,6.27
2023-03-05T17:04:15.277Z,5.93
2023-03-05T17:06:49.172Z,6.40
2023-03-05T17:09:19.244Z,7.17
2023-03-05T17:11:47.520Z,6.77
2023-03-05T17:14:15.715Z,8.10
2023-03-05T17:16:44.342Z,8.43
2023-03-05T17:19:12.926Z,9.07
2023-03-05T17:21:42.555Z,10.07
2023-03-05T17:24:13.206Z,8.13
2023-03-05T17:26:41.533Z,8.53
2023-03-05T17:29:09.826Z,8.90
2023-03-05T17:31:38.167Z,9.03
2023-03-05T17:34:06.654Z,8.13
2023-03-05T17:36:35.049Z,6.40
2023-03-05T17:39:04.547Z,7.77
2023-03-05T17:41:34.170Z,7.67
2023-03-05T17:44:02.416Z,7.00
2023-03-05T17:46:31.031Z,7.03
2023-03-05T17:48:59.230Z,8.77
2023-03-05T17:51:27.500Z,7.40
2023-03-05T17:53:56.010Z,7.80
2023-03-05T17:56:26.387Z,7.87
2023-03-05T17:58:56.320Z,10.97
2023-03-05T18:01:26.984Z,10.03
2023-03-05T18:03:55.781Z,10.03
2023-03-05T18:06:24.778Z,9.83
2023-03-05T18:08:53.393Z,10.33
2023-03-05T18:11:21.742Z,11.37
2023-03-05T18:13:50.224Z,11.07
2023-03-05T18:16:19.904Z,9.40
2023-03-05T18:18:48.295Z,10.20
2023-03-05T18:21:21.627Z,10.07
2023-03-05T18:23:51.137Z,9.57
2023-03-05T18:26:19.800Z,9.17
2023-03-05T18:28:48.112Z,10.47
2023-03-05T18:31:16.391Z,10.67
2023-03-05T18:33:46.147Z,16.43
2023-03-05T18:36:15.026Z,15.63
2023-03-05T18:38:43.396Z,14.27
2023-03-05T18:41:21.508Z,12.50
2023-03-05T18:43:50.478Z,11.93
2023-03-05T18:46:19.352Z,11.17
2023-03-05T18:48:49.231Z,11.70
2023-03-05T18:51:21.587Z,12.80
2023-03-05T18:53:51.088Z,12.67
2023-03-05T18:56:19.370Z,11.30
2023-03-05T18:58:49.541Z,11.30
2023-03-05T19:01:19.328Z,10.77
2023-03-05T19:03:50.068Z,12.20
2023-03-05T19:06:18.694Z,12.77
2023-03-05T19:08:50.783Z,13.47
2023-03-05T19:11:24.443Z,13.53
2023-03-05T19:13:53.102Z,11.67
2023-03-05T19:16:23.716Z,20.00
2023-03-05T19:19:03.136Z,14.00
2023-03-05T19:21:31.812Z,12.40
2023-03-05T19:24:00.114Z,10.27
2023-03-05T19:26:28.482Z,9.97
2023-03-05T19:28:57.174Z,11.17
2023-03-05T19:31:25.721Z,11.23
2023-03-05T19:33:55.672Z,11.97
2023-03-05T19:36:24.498Z,12.00
2023-03-05T19:38:52.746Z,13.27
2023-03-05T19:41:21.718Z,12.30
2023-03-05T19:43:50.489Z,13.80
2023-03-05T19:46:19.148Z,12.87
2023-03-05T19:48:47.519Z,13.80
2023-03-05T19:51:20.666Z,13.60
2023-03-05T19:53:49.295Z,13.97
2023-03-05T19:56:21.143Z,14.47
2023-03-05T19:58:49.552Z,14.37
2023-03-05T20:01:21.046Z,14.23
2023-03-05T20:03:53.074Z,14.27
2023-03-05T20:06:23.605Z,14.00
2023-03-05T20:08:52.007Z,15.03
2023-03-05T20:11:21.782Z,13.97
2023-03-05T20:13:50.688Z,14.60
2023-03-05T20:16:21.984Z,13.33
2023-03-05T20:18:52.809Z,14.33
2023-03-05T20:21:27.390Z,12.90
2023-03-05T20:23:58.734Z,12.70
2023-03-05T20:26:28.988Z,13.47
2023-03-05T20:28:58.462Z,12.77
2023-03-05T20:31:28.350Z,12.87
2023-03-05T20:33:57.229Z,14.07
2023-03-05T20:36:27.029Z,14.77
2023-03-05T20:38:55.795Z,13.20
2023-03-05T20:41:24.626Z,13.00
2023-03-05T20:43:53.777Z,13.67
2023-03-05T20:46:25.667Z,13.93
2023-03-05T20:48:57.575Z,12.50
2023-03-05T20:51:30.740Z,12.37
2023-03-05T20:54:03.885Z,13.13
2023-03-05T20:56:34.948Z,12.03
2023-03-05T20:59:08.510Z,12.73
2023-03-05T21:01:40.747Z,13.93
2023-03-05T21:04:09.885Z,10.27
2023-03-05T21:06:40.429Z,11.67
2023-03-05T21:09:08.768Z,10.77
2023-03-05T21:11:38.324Z,10.33
2023-03-05T21:14:06.651Z,10.13
2023-03-05T21:16:34.981Z,10.37
2023-03-05T21:19:03.331Z,11.77
2023-03-05T21:21:31.710Z,10.87
2023-03-05T21:24:01.318Z,13.10
2023-03-05T21:26:29.510Z,12.63
2023-03-05T21:28:57.979Z,12.70
2023-03-05T21:31:26.293Z,12.87
2023-03-05T21:33:54.626Z,13.23
2023-03-05T21:36:22.908Z,12.50
2023-03-05T21:38:51.576Z,12.43
2023-03-05T21:41:21.738Z,10.47
2023-03-05T21:43:50.395Z,12.70
2023-03-05T21:46:18.583Z,11.67
2023-03-05T21:48:46.874Z,11.80
2023-03-05T21:51:18.593Z,12.70
2023-03-05T21:53:47.027Z,14.00
2023-03-05T21:56:23.768Z,13.57
2023-03-05T21:58:54.992Z,12.73
2023-03-05T22:01:23.335Z,13.43
2023-03-05T22:03:51.724Z,11.43
2023-03-05T22:06:20.893Z,10.80
2023-03-05T22:08:49.434Z,9.43
2023-03-05T22:11:20.765Z,9.33
2023-03-05T22:13:49.356Z,10.63
2023-03-05T22:16:27.898Z,8.67
2023-03-05T22:18:56.502Z,11.40
2023-03-05T22:21:28.025Z,11.00
2023-03-05T22:23:58.032Z,11.13
2023-03-05T22:26:34.463Z,10.40
2023-03-05T22:29:02.871Z,10.53
2023-03-05T22:31:32.784Z,11.60
2023-03-05T22:34:01.113Z,10.53
2023-03-05T22:36:29.366Z,10.43
2023-03-05T22:38:57.540Z,10.10
2023-03-05T22:41:25.859Z,9.43
2023-03-05T22:43:54.232Z,9.73
2023-03-05T22:46:26.250Z,10.43
2023-03-05T22:48:56.023Z,9.93
2023-03-05T22:51:24.327Z,10.00
2023-03-05T22:53:52.936Z,10.80
2023-03-05T22:56:22.038Z,11.80
2023-03-05T22:58:50.257Z,13.50
2023-03-05T23:01:20.990Z,10.93
2023-03-05T23:03:54.994Z,10.47
2023-03-05T23:06:27.644Z,10.30
2023-03-05T23:08:56.238Z,10.27
2023-03-05T23:11:24.587Z,9.80
2023-03-05T23:13:53.042Z,9.90
2023-03-05T23:16:21.263Z,9.57
2023-03-05T23:18:49.449Z,10.20
2023-03-05T23:21:17.672Z,9.23
2023-03-05T23:23:47.256Z,9.00
2023-03-05T23:26:15.457Z,10.33
2023-03-05T23:28:43.702Z,10.57
2023-03-05T23:31:11.952Z,11.97
2023-03-05T23:33:40.428Z,10.87
2023-03-05T23:36:09.669Z,11.77
2023-03-05T23:38:37.939Z,11.40
2023-03-05T23:41:09.876Z,10.87
2023-03-05T23:43:38.233Z,11.80
2023-03-05T23:46:12.287Z,10.20
2023-03-05T23:48:42.639Z,11.13
2023-03-05T23:51:11.976Z,12.77
2023-03-05T23:53:40.253Z,10.37
2023-03-05T23:56:13.309Z,11.00
2023-03-05T23:58:42.712Z,11.07
